createdAt,value
2018-03-20T00:00:16.969Z,1009.64
2018-03-20T00:00:43.108Z,1009.67
2018-03-20T00:01:09.264Z,1009.66
2018-03-20T00:01:35.399Z,1009.67
2018-03-20T00:02:01.539Z,1009.62
2018-03-20T00:02:27.672Z,1009.7
2018-03-20T00:02:53.806Z,1009.71
2018-03-20T00:03:19.936Z,1009.66
2018-03-20T00:03:46.076Z,1009.68
2018-03-20T00:04:12.219Z,1009.69
2018-03-20T00:04:38.349Z,1009.68
2018-03-20T00:05:04.512Z,1009.68
2018-03-20T00:05:30.651Z,1009.65
2018-03-20T00:05:56.788Z,1009.62
2018-03-20T00:06:22.921Z,1009.67
2018-03-20T00:06:49.075Z,1009.63
2018-03-20T00:07:15.211Z,1009.63
2018-03-20T00:07:41.369Z,1009.59
2018-03-20T00:08:07.503Z,1009.61
2018-03-20T00:08:33.640Z,1009.62
2018-03-20T00:08:59.799Z,1009.65
2018-03-20T00:09:25.964Z,1009.66
2018-03-20T00:09:52.092Z,1009.65
2018-03-20T00:10:18.236Z,1009.62
2018-03-20T00:10:44.375Z,1009.62
2018-03-20T00:11:10.509Z,1009.62
2018-03-20T00:11:36.644Z,1009.6
2018-03-20T00:12:02.778Z,1009.6
2018-03-20T00:12:28.915Z,1009.58
2018-03-20T00:12:55.046Z,1009.58
2018-03-20T00:13:21.184Z,1009.61
2018-03-20T00:13:47.330Z,1009.63
2018-03-20T00:14:13.450Z,1009.63
2018-03-20T00:14:39.584Z,1009.65
2018-03-20T00:15:05.716Z,1009.64
2018-03-20T00:15:31.855Z,1009.63
2018-03-20T00:15:57.987Z,1009.59
2018-03-20T00:16:24.120Z,1009.62
2018-03-20T00:16:50.254Z,1009.62
2018-03-20T00:17:16.385Z,1009.58
2018-03-20T00:17:42.516Z,1009.62
2018-03-20T00:18:08.653Z,1009.63
2018-03-20T00:18:34.790Z,1009.63
2018-03-20T00:19:00.921Z,1009.66
2018-03-20T00:19:27.053Z,1009.73
2018-03-20T00:19:53.193Z,1009.74
2018-03-20T00:20:19.328Z,1009.76
2018-03-20T00:20:45.462Z,1009.74
2018-03-20T00:21:11.601Z,1009.73
2018-03-20T00:21:37.727Z,1009.73
2018-03-20T00:22:03.857Z,1009.71
2018-03-20T00:22:30.018Z,1009.68
2018-03-20T00:22:56.154Z,1009.7
2018-03-20T00:23:22.288Z,1009.7
2018-03-20T00:23:48.421Z,1009.7
2018-03-20T00:24:14.550Z,1009.74
2018-03-20T00:24:40.711Z,1009.71
2018-03-20T00:25:06.841Z,1009.74
2018-03-20T00:25:32.972Z,1009.72
2018-03-20T00:25:59.136Z,1009.75
2018-03-20T00:26:25.275Z,1009.7
2018-03-20T00:26:51.409Z,1009.73
2018-03-20T00:27:17.542Z,1009.71
2018-03-20T00:27:43.679Z,1009.7
2018-03-20T00:28:09.818Z,1009.71
2018-03-20T00:28:35.974Z,1009.72
2018-03-20T00:29:02.110Z,1009.69
2018-03-20T00:29:28.244Z,1009.65
2018-03-20T00:29:54.384Z,1009.67
2018-03-20T00:30:20.520Z,1009.68
2018-03-20T00:30:46.654Z,1009.68
2018-03-20T00:31:12.784Z,1009.68
2018-03-20T00:31:38.924Z,1009.66
2018-03-20T00:32:05.112Z,1009.62
2018-03-20T00:32:31.194Z,1009.66
2018-03-20T00:32:57.332Z,1009.67
2018-03-20T00:33:23.461Z,1009.66
2018-03-20T00:33:49.596Z,1009.68
2018-03-20T00:34:15.736Z,1009.67
2018-03-20T00:34:41.897Z,1009.69
2018-03-20T00:35:08.032Z,1009.7
2018-03-20T00:35:34.165Z,1009.7
2018-03-20T00:36:00.296Z,1009.72
2018-03-20T00:36:26.433Z,1009.78
2018-03-20T00:36:52.563Z,1009.73
2018-03-20T00:37:18.698Z,1009.77
2018-03-20T00:37:44.864Z,1009.76
2018-03-20T00:38:10.994Z,1009.79
2018-03-20T00:38:37.130Z,1009.78
2018-03-20T00:39:03.281Z,1009.74
2018-03-20T00:39:29.419Z,1009.76
2018-03-20T00:39:55.559Z,1009.74
2018-03-20T00:40:21.695Z,1009.71
2018-03-20T00:40:47.825Z,1009.66
2018-03-20T00:41:13.966Z,1009.67
2018-03-20T00:41:40.121Z,1009.68
2018-03-20T00:42:06.256Z,1009.65
2018-03-20T00:42:32.389Z,1009.65
2018-03-20T00:42:58.525Z,1009.65
2018-03-20T00:43:24.661Z,1009.66
2018-03-20T00:43:50.790Z,1009.66
2018-03-20T00:44:16.924Z,1009.66
2018-03-20T00:44:43.062Z,1009.63
2018-03-20T00:45:09.190Z,1009.65
2018-03-20T00:45:35.332Z,1009.63
2018-03-20T00:46:01.467Z,1009.62
2018-03-20T00:46:27.602Z,1009.61
2018-03-20T00:46:53.732Z,1009.65
2018-03-20T00:47:19.892Z,1009.6
2018-03-20T00:47:46.029Z,1009.55
2018-03-20T00:48:12.169Z,1009.58
2018-03-20T00:48:38.302Z,1009.61
2018-03-20T00:49:04.459Z,1009.66
2018-03-20T00:49:30.593Z,1009.66
2018-03-20T00:49:56.751Z,1009.66
2018-03-20T00:50:22.880Z,1009.67
2018-03-20T00:50:49.017Z,1009.69
2018-03-20T00:51:15.178Z,1009.67
2018-03-20T00:51:41.315Z,1009.67
2018-03-20T00:52:07.444Z,1009.69
2018-03-20T00:52:33.584Z,1009.68
2018-03-20T00:52:59.715Z,1009.7
2018-03-20T00:53:25.849Z,1009.71
2018-03-20T00:53:51.987Z,1009.7
2018-03-20T00:54:18.121Z,1009.72
2018-03-20T00:54:44.276Z,1009.77
2018-03-20T00:55:10.411Z,1009.73
2018-03-20T00:55:36.546Z,1009.75
2018-03-20T00:56:02.684Z,1009.71
2018-03-20T00:56:28.813Z,1009.72
2018-03-20T00:56:54.962Z,1009.69
2018-03-20T00:57:21.097Z,1009.71
2018-03-20T00:57:47.238Z,1009.71
2018-03-20T00:58:13.370Z,1009.74
2018-03-20T00:58:39.503Z,1009.72
2018-03-20T00:59:05.669Z,1009.68
2018-03-20T00:59:31.797Z,1009.65
2018-03-20T00:59:57.930Z,1009.67
2018-03-20T01:00:24.060Z,1009.69
2018-03-20T01:00:50.193Z,1009.72
2018-03-20T01:01:16.335Z,1009.7
2018-03-20T01:01:42.465Z,1009.72
2018-03-20T01:02:08.595Z,1009.74
2018-03-20T01:02:34.761Z,1009.71
2018-03-20T01:03:00.895Z,1009.73
2018-03-20T01:03:27.032Z,1009.72
2018-03-20T01:03:53.165Z,1009.67
2018-03-20T01:04:19.301Z,1009.66
2018-03-20T01:04:45.427Z,1009.67
2018-03-20T01:05:11.570Z,1009.68
2018-03-20T01:05:37.705Z,1009.64
2018-03-20T01:06:03.842Z,1009.67
2018-03-20T01:06:29.974Z,1009.62
2018-03-20T01:06:56.109Z,1009.65
2018-03-20T01:07:22.251Z,1009.65
2018-03-20T01:07:48.378Z,1009.62
2018-03-20T01:08:14.511Z,1009.61
2018-03-20T01:08:40.643Z,1009.58
2018-03-20T01:09:06.793Z,1009.61
2018-03-20T01:09:32.921Z,1009.66
2018-03-20T01:09:59.060Z,1009.62
2018-03-20T01:10:25.199Z,1009.62
2018-03-20T01:10:51.336Z,1009.58
2018-03-20T01:11:17.465Z,1009.59
2018-03-20T01:11:43.606Z,1009.6
2018-03-20T01:12:09.731Z,1009.64
2018-03-20T01:12:35.871Z,1009.64
2018-03-20T01:13:02.026Z,1009.59
2018-03-20T01:13:28.158Z,1009.61
2018-03-20T01:13:54.294Z,1009.56
2018-03-20T01:14:20.425Z,1009.59
2018-03-20T01:14:46.562Z,1009.58
2018-03-20T01:15:12.703Z,1009.59
2018-03-20T01:15:38.829Z,1009.58
2018-03-20T01:16:04.967Z,1009.61
2018-03-20T01:16:31.099Z,1009.59
2018-03-20T01:16:57.230Z,1009.58
2018-03-20T01:17:23.367Z,1009.59
2018-03-20T01:17:49.500Z,1009.55
2018-03-20T01:18:15.634Z,1009.58
2018-03-20T01:18:41.769Z,1009.54
2018-03-20T01:19:07.905Z,1009.55
2018-03-20T01:19:34.043Z,1009.5
2018-03-20T01:20:00.181Z,1009.54
2018-03-20T01:20:26.315Z,1009.6
2018-03-20T01:20:52.449Z,1009.54
2018-03-20T01:21:18.576Z,1009.56
2018-03-20T01:21:44.714Z,1009.58
2018-03-20T01:22:10.854Z,1009.57
2018-03-20T01:22:36.983Z,1009.56
2018-03-20T01:23:03.122Z,1009.54
2018-03-20T01:23:29.256Z,1009.56
2018-03-20T01:23:55.391Z,1009.57
2018-03-20T01:24:21.523Z,1009.53
2018-03-20T01:24:47.658Z,1009.52
2018-03-20T01:25:13.843Z,1009.51
2018-03-20T01:25:39.931Z,1009.5
2018-03-20T01:26:06.065Z,1009.52
2018-03-20T01:26:32.206Z,1009.49
2018-03-20T01:26:58.386Z,1009.48
2018-03-20T01:27:24.514Z,1009.51
2018-03-20T01:27:50.664Z,1009.49
2018-03-20T01:28:16.800Z,1009.51
2018-03-20T01:28:42.934Z,1009.5
2018-03-20T01:29:09.069Z,1009.5
2018-03-20T01:29:35.201Z,1009.46
2018-03-20T01:30:01.342Z,1009.51
2018-03-20T01:30:27.468Z,1009.42
2018-03-20T01:30:53.609Z,1009.46
2018-03-20T01:31:19.737Z,1009.42
2018-03-20T01:31:45.872Z,1009.41
2018-03-20T01:32:12.012Z,1009.41
2018-03-20T01:32:38.145Z,1009.45
2018-03-20T01:33:04.289Z,1009.42
2018-03-20T01:33:30.450Z,1009.39
2018-03-20T01:33:56.582Z,1009.39
2018-03-20T01:34:22.746Z,1009.36
2018-03-20T01:34:48.880Z,1009.36
2018-03-20T01:35:15.017Z,1009.35
2018-03-20T01:35:41.150Z,1009.35
2018-03-20T01:36:07.336Z,1009.35
2018-03-20T01:36:33.441Z,1009.32
2018-03-20T01:36:59.579Z,1009.34
2018-03-20T01:37:25.732Z,1009.25
2018-03-20T01:37:51.871Z,1009.26
2018-03-20T01:38:18.007Z,1009.3
2018-03-20T01:38:44.134Z,1009.3
2018-03-20T01:39:10.273Z,1009.31
2018-03-20T01:39:36.436Z,1009.28
2018-03-20T01:40:02.567Z,1009.26
2018-03-20T01:40:28.704Z,1009.24
2018-03-20T01:40:54.893Z,1009.27
2018-03-20T01:41:21.106Z,1009.25
2018-03-20T01:41:47.272Z,1009.19
2018-03-20T01:42:13.402Z,1009.18
2018-03-20T01:42:39.538Z,1009.21
2018-03-20T01:43:05.676Z,1009.18
2018-03-20T01:43:31.806Z,1009.11
2018-03-20T01:43:57.955Z,1009.07
2018-03-20T01:44:24.098Z,1009.05
2018-03-20T01:44:50.225Z,1009.01
2018-03-20T01:45:16.360Z,1008.97
2018-03-20T01:45:42.500Z,1008.97
2018-03-20T01:46:08.638Z,1008.94
2018-03-20T01:46:34.768Z,1008.98
2018-03-20T01:47:00.911Z,1009.03
2018-03-20T01:47:27.045Z,1009.07
2018-03-20T01:47:53.186Z,1009.13
2018-03-20T01:48:19.315Z,1009.17
2018-03-20T01:48:45.454Z,1009.21
2018-03-20T01:49:11.593Z,1009.22
2018-03-20T01:49:37.725Z,1009.23
2018-03-20T01:50:03.857Z,1009.19
2018-03-20T01:50:29.992Z,1009.22
2018-03-20T01:50:56.126Z,1009.24
2018-03-20T01:51:22.257Z,1009.25
2018-03-20T01:51:48.397Z,1009.29
2018-03-20T01:52:14.551Z,1009.27
2018-03-20T01:52:40.684Z,1009.27
2018-03-20T01:53:06.819Z,1009.23
2018-03-20T01:53:32.958Z,1009.22
2018-03-20T01:53:59.086Z,1009.19
2018-03-20T01:54:25.222Z,1009.19
2018-03-20T01:54:51.356Z,1009.19
2018-03-20T01:55:17.491Z,1009.18
2018-03-20T01:55:43.623Z,1009.17
2018-03-20T01:56:09.762Z,1009.14
2018-03-20T01:56:35.895Z,1009.17
2018-03-20T01:57:02.029Z,1009.16
2018-03-20T01:57:28.166Z,1009.18
2018-03-20T01:57:54.302Z,1009.16
2018-03-20T01:58:20.437Z,1009.17
2018-03-20T01:58:46.570Z,1009.18
2018-03-20T01:59:12.707Z,1009.17
2018-03-20T01:59:38.841Z,1009.19
2018-03-20T02:00:04.972Z,1009.19
2018-03-20T02:00:31.110Z,1009.17
2018-03-20T02:00:57.244Z,1009.19
2018-03-20T02:01:23.379Z,1009.19
2018-03-20T02:01:49.512Z,1009.19
2018-03-20T02:02:15.646Z,1009.16
2018-03-20T02:02:41.790Z,1009.17
2018-03-20T02:03:07.924Z,1009.16
2018-03-20T02:03:34.059Z,1009.13
2018-03-20T02:04:00.195Z,1009.13
2018-03-20T02:04:26.331Z,1009.16
2018-03-20T02:04:52.461Z,1009.09
2018-03-20T02:05:18.607Z,1009.12
2018-03-20T02:05:44.766Z,1009.13
2018-03-20T02:06:10.902Z,1009.09
2018-03-20T02:06:37.038Z,1009.1
2018-03-20T02:07:03.172Z,1009.08
2018-03-20T02:07:29.304Z,1009.09
2018-03-20T02:07:55.441Z,1009.08
2018-03-20T02:08:21.584Z,1009.08
2018-03-20T02:08:47.714Z,1009.04
2018-03-20T02:09:13.856Z,1009.06
2018-03-20T02:09:39.990Z,1009.03
2018-03-20T02:10:06.127Z,1009.05
2018-03-20T02:10:32.264Z,1009.04
2018-03-20T02:10:58.419Z,1009.02
2018-03-20T02:11:24.574Z,1009.04
2018-03-20T02:11:50.711Z,1009
2018-03-20T02:12:16.860Z,1009.02
2018-03-20T02:12:42.991Z,1009.02
2018-03-20T02:13:09.127Z,1009.03
2018-03-20T02:13:35.264Z,1009.02
2018-03-20T02:14:01.396Z,1009
2018-03-20T02:14:27.529Z,1008.97
2018-03-20T02:14:53.690Z,1009
2018-03-20T02:15:19.820Z,1009.02
2018-03-20T02:15:45.955Z,1009.02
2018-03-20T02:16:12.098Z,1009
2018-03-20T02:16:38.232Z,1008.98
2018-03-20T02:17:04.364Z,1008.97
2018-03-20T02:17:30.500Z,1008.96
2018-03-20T02:17:56.690Z,1008.95
2018-03-20T02:18:22.822Z,1008.96
2018-03-20T02:18:48.952Z,1008.94
2018-03-20T02:19:15.086Z,1008.94
2018-03-20T02:19:41.252Z,1008.92
2018-03-20T02:20:07.386Z,1008.91
2018-03-20T02:20:33.525Z,1008.87
2018-03-20T02:20:59.687Z,1008.89
2018-03-20T02:21:25.818Z,1008.89
2018-03-20T02:21:51.957Z,1008.88
2018-03-20T02:22:18.092Z,1008.85
2018-03-20T02:22:44.229Z,1008.85
2018-03-20T02:23:10.389Z,1008.82
2018-03-20T02:23:36.525Z,1008.8
2018-03-20T02:24:02.661Z,1008.84
2018-03-20T02:24:28.793Z,1008.85
2018-03-20T02:24:54.934Z,1008.83
2018-03-20T02:25:21.065Z,1008.82
2018-03-20T02:25:47.203Z,1008.83
2018-03-20T02:26:13.338Z,1008.8
2018-03-20T02:26:39.463Z,1008.83
2018-03-20T02:27:05.600Z,1008.83
2018-03-20T02:27:31.732Z,1008.81
2018-03-20T02:27:57.873Z,1008.82
2018-03-20T02:28:24.003Z,1008.84
2018-03-20T02:28:50.141Z,1008.8
2018-03-20T02:29:16.274Z,1008.83
2018-03-20T02:29:42.414Z,1008.81
2018-03-20T02:30:08.577Z,1008.76
2018-03-20T02:30:34.734Z,1008.75
2018-03-20T02:31:00.878Z,1008.73
2018-03-20T02:31:27.009Z,1008.74
2018-03-20T02:31:53.161Z,1008.73
2018-03-20T02:32:19.297Z,1008.69
2018-03-20T02:32:45.437Z,1008.66
2018-03-20T02:33:11.567Z,1008.66
2018-03-20T02:33:37.722Z,1008.67
2018-03-20T02:34:03.858Z,1008.67
2018-03-20T02:34:29.993Z,1008.62
2018-03-20T02:34:56.123Z,1008.65
2018-03-20T02:35:22.257Z,1008.68
2018-03-20T02:35:48.392Z,1008.65
2018-03-20T02:36:14.527Z,1008.67
2018-03-20T02:36:40.687Z,1008.66
2018-03-20T02:37:06.823Z,1008.66
2018-03-20T02:37:32.955Z,1008.66
2018-03-20T02:37:59.090Z,1008.65
2018-03-20T02:38:25.231Z,1008.68
2018-03-20T02:38:51.368Z,1008.67
2018-03-20T02:39:17.524Z,1008.7
2018-03-20T02:39:43.655Z,1008.72
2018-03-20T02:40:09.799Z,1008.68
2018-03-20T02:40:35.933Z,1008.68
2018-03-20T02:41:02.070Z,1008.69
2018-03-20T02:41:28.231Z,1008.68
2018-03-20T02:41:54.368Z,1008.67
2018-03-20T02:42:20.515Z,1008.67
2018-03-20T02:42:46.656Z,1008.69
2018-03-20T02:43:12.788Z,1008.66
2018-03-20T02:43:38.928Z,1008.66
2018-03-20T02:44:05.065Z,1008.64
2018-03-20T02:44:31.203Z,1008.64
2018-03-20T02:44:57.337Z,1008.61
2018-03-20T02:45:23.469Z,1008.62
2018-03-20T02:45:49.606Z,1008.64
2018-03-20T02:46:15.761Z,1008.66
2018-03-20T02:46:41.912Z,1008.59
2018-03-20T02:47:08.055Z,1008.56
2018-03-20T02:47:34.183Z,1008.52
2018-03-20T02:48:00.322Z,1008.53
2018-03-20T02:48:26.471Z,1008.55
2018-03-20T02:48:52.619Z,1008.57
2018-03-20T02:49:18.756Z,1008.55
2018-03-20T02:49:44.893Z,1008.58
2018-03-20T02:50:11.043Z,1008.54
2018-03-20T02:50:37.184Z,1008.57
2018-03-20T02:51:03.347Z,1008.58
2018-03-20T02:51:29.478Z,1008.56
2018-03-20T02:51:55.604Z,1008.55
2018-03-20T02:52:21.741Z,1008.6
2018-03-20T02:52:47.870Z,1008.6
2018-03-20T02:53:14.007Z,1008.61
2018-03-20T02:53:40.147Z,1008.57
2018-03-20T02:54:06.284Z,1008.57
2018-03-20T02:54:32.419Z,1008.6
2018-03-20T02:54:58.591Z,1008.61
2018-03-20T02:55:24.725Z,1008.59
2018-03-20T02:55:50.885Z,1008.6
2018-03-20T02:56:17.032Z,1008.59
2018-03-20T02:56:43.163Z,1008.56
2018-03-20T02:57:09.321Z,1008.54
2018-03-20T02:57:35.460Z,1008.58
2018-03-20T02:58:01.607Z,1008.56
2018-03-20T02:58:27.759Z,1008.58
2018-03-20T02:58:53.896Z,1008.56
2018-03-20T02:59:20.049Z,1008.57
2018-03-20T02:59:46.194Z,1008.54
2018-03-20T03:00:12.315Z,1008.53
2018-03-20T03:00:38.449Z,1008.53
2018-03-20T03:01:04.586Z,1008.56
2018-03-20T03:01:30.723Z,1008.52
2018-03-20T03:01:56.884Z,1008.55
2018-03-20T03:02:23.065Z,1008.56
2018-03-20T03:02:49.198Z,1008.56
2018-03-20T03:03:15.327Z,1008.58
2018-03-20T03:03:41.458Z,1008.55
2018-03-20T03:04:07.592Z,1008.54
2018-03-20T03:04:33.730Z,1008.56
2018-03-20T03:04:59.896Z,1008.56
2018-03-20T03:05:26.000Z,1008.53
2018-03-20T03:05:52.186Z,1008.59
2018-03-20T03:06:18.320Z,1008.59
2018-03-20T03:06:44.457Z,1008.56
2018-03-20T03:07:10.611Z,1008.58
2018-03-20T03:07:36.748Z,1008.59
2018-03-20T03:08:02.883Z,1008.6
2018-03-20T03:08:29.043Z,1008.59
2018-03-20T03:08:55.201Z,1008.54
2018-03-20T03:09:21.334Z,1008.59
2018-03-20T03:09:47.501Z,1008.57
2018-03-20T03:10:13.617Z,1008.56
2018-03-20T03:10:39.755Z,1008.61
2018-03-20T03:11:05.883Z,1008.61
2018-03-20T03:11:32.019Z,1008.6
2018-03-20T03:11:58.152Z,1008.54
2018-03-20T03:12:24.309Z,1008.55
2018-03-20T03:12:50.445Z,1008.55
2018-03-20T03:13:16.584Z,1008.53
2018-03-20T03:13:42.722Z,1008.55
2018-03-20T03:14:08.882Z,1008.51
2018-03-20T03:14:35.013Z,1008.5
2018-03-20T03:15:01.144Z,1008.56
2018-03-20T03:15:27.283Z,1008.54
2018-03-20T03:15:53.439Z,1008.53
2018-03-20T03:16:19.572Z,1008.45
2018-03-20T03:16:45.711Z,1008.51
2018-03-20T03:17:11.868Z,1008.49
2018-03-20T03:17:37.999Z,1008.5
2018-03-20T03:18:04.133Z,1008.46
2018-03-20T03:18:30.271Z,1008.48
2018-03-20T03:18:56.403Z,1008.48
2018-03-20T03:19:22.536Z,1008.53
2018-03-20T03:19:48.668Z,1008.47
2018-03-20T03:20:14.803Z,1008.45
2018-03-20T03:20:40.943Z,1008.45
2018-03-20T03:21:07.073Z,1008.53
2018-03-20T03:21:33.207Z,1008.49
2018-03-20T03:21:59.372Z,1008.52
2018-03-20T03:22:25.498Z,1008.48
2018-03-20T03:22:51.635Z,1008.51
2018-03-20T03:23:17.775Z,1008.54
2018-03-20T03:23:43.908Z,1008.51
2018-03-20T03:24:10.041Z,1008.49
2018-03-20T03:24:36.180Z,1008.41
2018-03-20T03:25:02.317Z,1008.42
2018-03-20T03:25:28.448Z,1008.4
2018-03-20T03:25:54.582Z,1008.41
2018-03-20T03:26:20.743Z,1008.42
2018-03-20T03:26:46.880Z,1008.43
2018-03-20T03:27:13.015Z,1008.36
2018-03-20T03:27:39.145Z,1008.37
2018-03-20T03:28:05.281Z,1008.4
2018-03-20T03:28:31.410Z,1008.41
2018-03-20T03:28:57.548Z,1008.4
2018-03-20T03:29:23.685Z,1008.41
2018-03-20T03:29:49.821Z,1008.4
2018-03-20T03:30:15.961Z,1008.44
2018-03-20T03:30:42.093Z,1008.43
2018-03-20T03:31:08.233Z,1008.42
2018-03-20T03:31:34.357Z,1008.43
2018-03-20T03:32:00.494Z,1008.42
2018-03-20T03:32:26.627Z,1008.45
2018-03-20T03:32:52.757Z,1008.44
2018-03-20T03:33:18.887Z,1008.46
2018-03-20T03:33:45.019Z,1008.45
2018-03-20T03:34:11.159Z,1008.47
2018-03-20T03:34:37.318Z,1008.46
2018-03-20T03:35:03.451Z,1008.42
2018-03-20T03:35:29.605Z,1008.44
2018-03-20T03:35:55.740Z,1008.46
2018-03-20T03:36:21.876Z,1008.48
2018-03-20T03:36:48.011Z,1008.45
2018-03-20T03:37:14.141Z,1008.38
2018-03-20T03:37:40.302Z,1008.44
2018-03-20T03:38:06.460Z,1008.42
2018-03-20T03:38:32.599Z,1008.44
2018-03-20T03:38:58.728Z,1008.46
2018-03-20T03:39:24.868Z,1008.44
2018-03-20T03:39:51.016Z,1008.44
2018-03-20T03:40:17.155Z,1008.44
2018-03-20T03:40:43.297Z,1008.43
2018-03-20T03:41:09.451Z,1008.42
2018-03-20T03:41:35.578Z,1008.44
2018-03-20T03:42:01.721Z,1008.39
2018-03-20T03:42:27.849Z,1008.43
2018-03-20T03:42:53.989Z,1008.43
2018-03-20T03:43:20.119Z,1008.49
2018-03-20T03:43:46.277Z,1008.47
2018-03-20T03:44:12.439Z,1008.47
2018-03-20T03:44:38.574Z,1008.45
2018-03-20T03:45:04.717Z,1008.46
2018-03-20T03:45:30.850Z,1008.45
2018-03-20T03:45:56.985Z,1008.46
2018-03-20T03:46:23.136Z,1008.46
2018-03-20T03:46:49.274Z,1008.46
2018-03-20T03:47:15.437Z,1008.46
2018-03-20T03:47:41.571Z,1008.51
2018-03-20T03:48:07.710Z,1008.48
2018-03-20T03:48:33.871Z,1008.52
2018-03-20T03:49:00.006Z,1008.45
2018-03-20T03:49:26.136Z,1008.47
2018-03-20T03:49:52.284Z,1008.48
2018-03-20T03:50:18.410Z,1008.52
2018-03-20T03:50:44.548Z,1008.52
2018-03-20T03:51:10.675Z,1008.5
2018-03-20T03:51:36.837Z,1008.46
2018-03-20T03:52:02.974Z,1008.53
2018-03-20T03:52:29.110Z,1008.51
2018-03-20T03:52:55.246Z,1008.51
2018-03-20T03:53:21.378Z,1008.49
2018-03-20T03:53:47.517Z,1008.47
2018-03-20T03:54:13.654Z,1008.54
2018-03-20T03:54:39.792Z,1008.54
2018-03-20T03:55:05.926Z,1008.54
2018-03-20T03:55:32.060Z,1008.56
2018-03-20T03:55:58.198Z,1008.55
2018-03-20T03:56:24.329Z,1008.53
2018-03-20T03:56:50.466Z,1008.53
2018-03-20T03:57:16.598Z,1008.57
2018-03-20T03:57:42.736Z,1008.59
2018-03-20T03:58:08.900Z,1008.61
2018-03-20T03:58:35.033Z,1008.55
2018-03-20T03:59:01.192Z,1008.56
2018-03-20T03:59:27.330Z,1008.55
2018-03-20T03:59:53.492Z,1008.54
2018-03-20T04:00:19.627Z,1008.56
2018-03-20T04:00:45.766Z,1008.57
2018-03-20T04:01:11.901Z,1008.58
2018-03-20T04:01:38.065Z,1008.55
2018-03-20T04:02:04.198Z,1008.54
2018-03-20T04:02:30.331Z,1008.53
2018-03-20T04:02:56.494Z,1008.56
2018-03-20T04:03:22.634Z,1008.57
2018-03-20T04:03:48.766Z,1008.58
2018-03-20T04:04:14.902Z,1008.58
2018-03-20T04:04:41.043Z,1008.6
2018-03-20T04:05:07.183Z,1008.6
2018-03-20T04:05:33.309Z,1008.57
2018-03-20T04:05:59.448Z,1008.55
2018-03-20T04:06:25.604Z,1008.56
2018-03-20T04:06:51.742Z,1008.56
2018-03-20T04:07:17.885Z,1008.57
2018-03-20T04:07:44.019Z,1008.55
2018-03-20T04:08:10.151Z,1008.57
2018-03-20T04:08:36.287Z,1008.55
2018-03-20T04:09:02.449Z,1008.53
2018-03-20T04:09:28.588Z,1008.51
2018-03-20T04:09:54.725Z,1008.52
2018-03-20T04:10:20.857Z,1008.5
2018-03-20T04:10:46.999Z,1008.5
2018-03-20T04:11:13.128Z,1008.52
2018-03-20T04:11:39.262Z,1008.53
2018-03-20T04:12:05.393Z,1008.54
2018-03-20T04:12:31.554Z,1008.55
2018-03-20T04:12:57.692Z,1008.55
2018-03-20T04:13:23.821Z,1008.53
2018-03-20T04:13:49.960Z,1008.51
2018-03-20T04:14:16.097Z,1008.53
2018-03-20T04:14:42.235Z,1008.55
2018-03-20T04:15:08.372Z,1008.53
2018-03-20T04:15:34.513Z,1008.53
2018-03-20T04:16:00.644Z,1008.53
2018-03-20T04:16:26.779Z,1008.5
2018-03-20T04:16:52.921Z,1008.54
2018-03-20T04:17:19.055Z,1008.5
2018-03-20T04:17:45.192Z,1008.56
2018-03-20T04:18:11.437Z,1008.55
2018-03-20T04:18:37.454Z,1008.5
2018-03-20T04:19:03.587Z,1008.49
2018-03-20T04:19:29.725Z,1008.47
2018-03-20T04:19:55.868Z,1008.46
2018-03-20T04:20:21.997Z,1008.47
2018-03-20T04:20:48.135Z,1008.49
2018-03-20T04:21:14.271Z,1008.49
2018-03-20T04:21:40.408Z,1008.54
2018-03-20T04:22:06.566Z,1008.5
2018-03-20T04:22:32.704Z,1008.5
2018-03-20T04:22:58.836Z,1008.52
2018-03-20T04:23:25.007Z,1008.47
2018-03-20T04:23:51.107Z,1008.54
2018-03-20T04:24:17.250Z,1008.51
2018-03-20T04:24:43.375Z,1008.45
2018-03-20T04:25:09.558Z,1008.5
2018-03-20T04:25:35.692Z,1008.54
2018-03-20T04:26:01.833Z,1008.51
2018-03-20T04:26:27.966Z,1008.54
2018-03-20T04:26:54.096Z,1008.55
2018-03-20T04:27:20.232Z,1008.58
2018-03-20T04:27:46.369Z,1008.56
2018-03-20T04:28:12.496Z,1008.51
2018-03-20T04:28:38.664Z,1008.59
2018-03-20T04:29:04.794Z,1008.53
2018-03-20T04:29:30.928Z,1008.52
2018-03-20T04:29:57.099Z,1008.55
2018-03-20T04:30:23.229Z,1008.49
2018-03-20T04:30:49.368Z,1008.54
2018-03-20T04:31:15.525Z,1008.5
2018-03-20T04:31:41.662Z,1008.49
2018-03-20T04:32:07.795Z,1008.53
2018-03-20T04:32:33.930Z,1008.56
2018-03-20T04:33:00.063Z,1008.57
2018-03-20T04:33:26.203Z,1008.52
2018-03-20T04:33:52.338Z,1008.55
2018-03-20T04:34:18.476Z,1008.56
2018-03-20T04:34:44.604Z,1008.54
2018-03-20T04:35:10.748Z,1008.52
2018-03-20T04:35:36.880Z,1008.55
2018-03-20T04:36:03.020Z,1008.53
2018-03-20T04:36:29.159Z,1008.57
2018-03-20T04:36:55.314Z,1008.55
2018-03-20T04:37:21.446Z,1008.52
2018-03-20T04:37:47.575Z,1008.56
2018-03-20T04:38:13.716Z,1008.54
2018-03-20T04:38:39.849Z,1008.55
2018-03-20T04:39:05.983Z,1008.55
2018-03-20T04:39:32.116Z,1008.5
2018-03-20T04:39:58.297Z,1008.54
2018-03-20T04:40:24.434Z,1008.47
2018-03-20T04:40:50.564Z,1008.56
2018-03-20T04:41:16.703Z,1008.56
2018-03-20T04:41:42.850Z,1008.57
2018-03-20T04:42:08.972Z,1008.56
2018-03-20T04:42:35.110Z,1008.56
2018-03-20T04:43:01.246Z,1008.54
2018-03-20T04:43:27.380Z,1008.58
2018-03-20T04:43:53.512Z,1008.57
2018-03-20T04:44:19.653Z,1008.58
2018-03-20T04:44:45.789Z,1008.58
2018-03-20T04:45:11.926Z,1008.61
2018-03-20T04:45:38.061Z,1008.62
2018-03-20T04:46:04.194Z,1008.62
2018-03-20T04:46:30.335Z,1008.58
2018-03-20T04:46:56.483Z,1008.6
2018-03-20T04:47:22.623Z,1008.58
2018-03-20T04:47:48.759Z,1008.6
2018-03-20T04:48:14.898Z,1008.59
2018-03-20T04:48:41.037Z,1008.64
2018-03-20T04:49:07.169Z,1008.6
2018-03-20T04:49:33.301Z,1008.61
2018-03-20T04:49:59.437Z,1008.57
2018-03-20T04:50:25.578Z,1008.58
2018-03-20T04:50:51.735Z,1008.56
2018-03-20T04:51:17.870Z,1008.65
2018-03-20T04:51:44.008Z,1008.61
2018-03-20T04:52:10.140Z,1008.67
2018-03-20T04:52:36.276Z,1008.65
2018-03-20T04:53:02.404Z,1008.65
2018-03-20T04:53:28.538Z,1008.64
2018-03-20T04:53:54.676Z,1008.6
2018-03-20T04:54:20.814Z,1008.64
2018-03-20T04:54:46.949Z,1008.61
2018-03-20T04:55:13.089Z,1008.59
2018-03-20T04:55:39.221Z,1008.6
2018-03-20T04:56:05.364Z,1008.56
2018-03-20T04:56:31.490Z,1008.61
2018-03-20T04:56:57.628Z,1008.55
2018-03-20T04:57:23.762Z,1008.55
2018-03-20T04:57:49.898Z,1008.59
2018-03-20T04:58:16.028Z,1008.56
2018-03-20T04:58:42.163Z,1008.52
2018-03-20T04:59:08.312Z,1008.53
2018-03-20T04:59:34.438Z,1008.6
2018-03-20T05:00:00.578Z,1008.61
2018-03-20T05:00:26.710Z,1008.62
2018-03-20T05:00:52.849Z,1008.65
2018-03-20T05:01:18.986Z,1008.64
2018-03-20T05:01:45.115Z,1008.63
2018-03-20T05:02:11.258Z,1008.64
2018-03-20T05:02:37.384Z,1008.64
2018-03-20T05:03:03.563Z,1008.63
2018-03-20T05:03:29.677Z,1008.61
2018-03-20T05:03:55.816Z,1008.64
2018-03-20T05:04:21.976Z,1008.64
2018-03-20T05:04:48.114Z,1008.6
2018-03-20T05:05:14.247Z,1008.62
2018-03-20T05:05:40.386Z,1008.58
2018-03-20T05:06:06.546Z,1008.65
2018-03-20T05:06:32.685Z,1008.58
2018-03-20T05:06:58.815Z,1008.56
2018-03-20T05:07:24.952Z,1008.58
2018-03-20T05:07:51.088Z,1008.57
2018-03-20T05:08:17.225Z,1008.58
2018-03-20T05:08:43.363Z,1008.55
2018-03-20T05:09:09.498Z,1008.56
2018-03-20T05:09:35.636Z,1008.57
2018-03-20T05:10:01.766Z,1008.5
2018-03-20T05:10:27.915Z,1008.5
2018-03-20T05:10:54.046Z,1008.58
2018-03-20T05:11:20.174Z,1008.6
2018-03-20T05:11:46.314Z,1008.56
2018-03-20T05:12:12.479Z,1008.63
2018-03-20T05:12:38.598Z,1008.63
2018-03-20T05:13:04.736Z,1008.6
2018-03-20T05:13:30.872Z,1008.61
2018-03-20T05:13:57.005Z,1008.64
2018-03-20T05:14:23.139Z,1008.62
2018-03-20T05:14:49.274Z,1008.64
2018-03-20T05:15:15.411Z,1008.62
2018-03-20T05:15:41.553Z,1008.62
2018-03-20T05:16:07.689Z,1008.6
2018-03-20T05:16:33.817Z,1008.62
2018-03-20T05:16:59.961Z,1008.61
2018-03-20T05:17:26.105Z,1008.62